ESMJ weather

Kågeröd Simmelsberga Airport
Kågeröd, Skåne län, Sweden

Public forecast

Using degrees Celsius for public forecast. Weather courtesy of forecast.io.

Closest aviation weather report (METAR) to Kågeröd Simmelsberga Airport

Closest report is Ljungbyhed Airport, 7.6 nm (14.0 km) NE. Retrieved 2020/08/08 08:20 UTC (0 seconds ago):

ESTL 080820Z AUTO VRB02KT 9999 NCD 23/17 Q1022

Closest aviation forecast (TAF) to Kågeröd Simmelsberga Airport

Forecast is more than 12 hours old.

Closest forecast is Ljungbyhed Airport, 7.6 nm (14.0 km) NE. Retrieved 2016/03/01 09:33 UTC (4 years ago):

TAF ESTL 010830Z 0109/0124 14004KT 9999 SCT025